Time;durP1;ratioP1;P1;durP2;ratioP2;P2;SDS_P1;SDS_P2;PMS_P1;PMS_P2;Temp;Humidity;BMP_temperature;BMP_pressure;BME280_temperature;BME280_humidity;BME280_pressure;Samples;Min_cycle;Max_cycle;Signal;HPM_P1;HPM_P2
2022/03/06 00:01:42;;;;;;;9.37;6.73;;;8.00;99.90;;;;;;5090169;28;20209;-73
2022/03/06 00:04:11;;;;;;;10.27;6.80;;;8.00;99.90;;;;;;5092063;28;20708;-73
2022/03/06 00:06:38;;;;;;;8.43;6.33;;;8.00;99.90;;;;;;5094705;28;20227;-73
2022/03/06 00:09:05;;;;;;;8.90;7.03;;;7.90;99.90;;;;;;5094815;28;20201;-74
2022/03/06 00:11:32;;;;;;;9.57;6.17;;;7.90;99.90;;;;;;5094142;28;20201;-74
2022/03/06 00:13:59;;;;;;;8.83;7.13;;;7.90;99.90;;;;;;5093966;28;20206;-75
2022/03/06 00:16:26;;;;;;;10.90;9.57;;;7.90;99.90;;;;;;5094267;28;20701;-73
2022/03/06 00:18:53;;;;;;;13.97;12.27;;;7.90;99.90;;;;;;5093820;28;20623;-73
2022/03/06 00:21:21;;;;;;;21.87;16.57;;;7.90;99.90;;;;;;5094171;28;20742;-72
2022/03/06 00:23:48;;;;;;;17.67;15.50;;;7.90;99.90;;;;;;5093740;28;20236;-72
2022/03/06 00:26:15;;;;;;;21.23;19.13;;;7.90;99.90;;;;;;5094336;28;20270;-73
2022/03/06 00:28:42;;;;;;;22.83;19.47;;;7.90;99.90;;;;;;5093578;28;20205;-72
2022/03/06 00:31:09;;;;;;;21.30;19.27;;;7.90;99.90;;;;;;5094112;28;20253;-73
2022/03/06 00:33:36;;;;;;;23.23;19.50;;;7.90;99.90;;;;;;5094188;28;20673;-73
2022/03/06 00:36:04;;;;;;;21.70;16.37;;;7.90;99.90;;;;;;5094043;28;20198;-72
2022/03/06 00:38:32;;;;;;;17.77;15.93;;;7.90;99.90;;;;;;5093664;28;20254;-72
2022/03/06 00:40:59;;;;;;;18.20;16.27;;;7.90;99.90;;;;;;5093431;28;20202;-73
2022/03/06 00:43:26;;;;;;;17.77;14.33;;;7.90;99.90;;;;;;5093690;28;20758;-71
2022/03/06 00:45:53;;;;;;;12.97;11.67;;;7.90;99.90;;;;;;5093290;28;20205;-73
2022/03/06 00:48:20;;;;;;;12.70;10.63;;;7.90;99.90;;;;;;5093560;28;20233;-73
2022/03/06 00:50:47;;;;;;;10.37;9.37;;;7.90;99.90;;;;;;5093436;28;20258;-73
2022/03/06 00:53:15;;;;;;;8.30;7.47;;;7.70;99.90;;;;;;5093445;28;20198;-74
2022/03/06 00:55:43;;;;;;;10.10;9.10;;;7.70;99.90;;;;;;5093130;28;20749;-72
2022/03/06 00:58:10;;;;;;;12.40;8.03;;;7.80;99.90;;;;;;5093513;28;20202;-70
2022/03/06 01:00:39;;;;;;;9.40;7.30;;;7.80;99.90;;;;;;5093566;28;20202;-73
2022/03/06 01:03:08;;;;;;;8.17;5.97;;;7.70;99.90;;;;;;5093468;28;20208;-72
2022/03/06 01:05:35;;;;;;;10.53;6.73;;;7.70;99.90;;;;;;5093662;28;20202;-72
2022/03/06 01:08:03;;;;;;;10.80;7.67;;;7.70;99.90;;;;;;5092740;28;20658;-73
2022/03/06 01:10:30;;;;;;;7.20;5.87;;;7.70;99.90;;;;;;5093374;28;20274;-72
2022/03/06 01:12:59;;;;;;;6.50;5.90;;;7.80;99.90;;;;;;5092876;28;20258;-73
2022/03/06 01:15:26;;;;;;;8.53;5.60;;;7.80;99.90;;;;;;5092488;28;20209;-72
2022/03/06 01:17:53;;;;;;;6.67;6.00;;;7.80;99.90;;;;;;5092805;28;20210;-72
2022/03/06 01:20:20;;;;;;;8.00;6.07;;;7.80;99.90;;;;;;5093020;28;20618;-72
2022/03/06 01:22:48;;;;;;;6.73;6.03;;;7.80;99.90;;;;;;5092496;28;20205;-72
2022/03/06 01:25:15;;;;;;;6.73;5.67;;;7.80;99.90;;;;;;5092979;28;20713;-80
2022/03/06 01:27:42;;;;;;;8.70;5.87;;;7.90;99.90;;;;;;5092508;28;20202;-78
2022/03/06 01:30:15;;;;;;;6.77;6.07;;;7.80;99.90;;;;;;5092971;28;20198;-79
2022/03/06 01:32:42;;;;;;;7.77;6.07;;;7.70;99.90;;;;;;5092489;28;20227;-80
2022/03/06 01:35:10;;;;;;;7.80;5.10;;;7.70;99.90;;;;;;5093030;28;20213;-78
2022/03/06 01:37:37;;;;;;;8.27;5.70;;;7.70;99.90;;;;;;5093027;28;20254;-81
2022/03/06 01:40:05;;;;;;;12.63;7.10;;;7.70;99.90;;;;;;5092628;28;20201;-80
2022/03/06 01:42:33;;;;;;;8.63;6.00;;;7.70;99.90;;;;;;5092639;28;20241;-80
2022/03/06 01:45:00;;;;;;;7.17;5.17;;;7.80;99.90;;;;;;5093049;28;20920;-81
2022/03/06 01:47:37;;;;;;;10.73;6.93;;;7.80;99.90;;;;;;5093370;28;20204;-81
2022/03/06 01:50:06;;;;;;;8.20;6.10;;;7.90;99.90;;;;;;5092695;28;20665;-80
2022/03/06 01:52:33;;;;;;;10.33;6.50;;;7.90;99.90;;;;;;5093244;28;20629;-81
2022/03/06 01:55:00;;;;;;;8.77;5.03;;;7.90;99.90;;;;;;5092272;28;20281;-75
2022/03/06 01:57:29;;;;;;;8.03;6.23;;;7.90;99.90;;;;;;5092591;28;20206;-79
2022/03/06 01:59:56;;;;;;;9.90;6.07;;;7.90;99.90;;;;;;5092250;28;20344;-78
2022/03/06 02:02:24;;;;;;;13.93;7.53;;;7.90;99.90;;;;;;5092012;28;20620;-79
2022/03/06 02:04:52;;;;;;;7.23;5.80;;;7.90;99.90;;;;;;5091511;28;20286;-77
2022/03/06 02:07:19;;;;;;;8.50;5.77;;;7.90;99.90;;;;;;5092020;28;20669;-80
2022/03/06 02:09:46;;;;;;;7.17;6.50;;;7.90;99.90;;;;;;5091977;28;20279;-77
2022/03/06 02:12:22;;;;;;;7.13;5.97;;;7.80;99.90;;;;;;5092206;28;20213;-75
2022/03/06 02:14:49;;;;;;;9.47;5.80;;;7.70;99.90;;;;;;5091545;28;20217;-76
2022/03/06 02:17:16;;;;;;;7.27;5.50;;;7.60;99.90;;;;;;5091886;28;20216;-76
2022/03/06 02:20:00;;;;;;;9.77;5.83;;;7.60;99.90;;;;;;5091306;28;20215;-76
2022/03/06 02:22:30;;;;;;;6.70;5.80;;;7.70;99.90;;;;;;5091913;28;20314;-76
2022/03/06 02:24:59;;;;;;;6.70;4.90;;;7.70;99.90;;;;;;5091314;28;20716;-75
2022/03/06 02:27:26;;;;;;;9.73;6.63;;;7.70;99.90;;;;;;5091786;28;20197;-75
2022/03/06 02:29:54;;;;;;;7.77;5.17;;;7.60;99.90;;;;;;5091259;28;20266;-77
2022/03/06 02:32:23;;;;;;;8.87;6.33;;;7.60;99.90;;;;;;5091633;28;20198;-76
2022/03/06 02:34:52;;;;;;;7.43;5.77;;;7.70;99.90;;;;;;5091137;28;20696;-76
2022/03/06 02:37:21;;;;;;;7.60;4.70;;;7.70;99.90;;;;;;5091510;28;20573;-75
2022/03/06 02:39:49;;;;;;;7.60;5.83;;;7.60;99.90;;;;;;5091239;28;20673;-75
2022/03/06 02:42:28;;;;;;;8.57;5.07;;;7.70;99.90;;;;;;5091459;28;20296;-76
2022/03/06 02:44:55;;;;;;;7.57;5.33;;;7.60;99.90;;;;;;5090947;28;20229;-75
2022/03/06 02:47:22;;;;;;;7.70;4.63;;;7.60;99.90;;;;;;5091640;28;20201;-75
2022/03/06 02:49:49;;;;;;;11.90;5.07;;;7.60;99.90;;;;;;5090800;28;20262;-76
2022/03/06 02:52:16;;;;;;;7.67;5.13;;;7.60;99.90;;;;;;5091475;28;20202;-76
2022/03/06 02:54:43;;;;;;;4.60;4.17;;;7.70;99.90;;;;;;5090994;28;20247;-76
2022/03/06 02:57:14;;;;;;;5.47;4.63;;;7.70;99.90;;;;;;5091371;28;20205;-76
2022/03/06 02:59:41;;;;;;;7.67;4.97;;;7.70;99.90;;;;;;5090836;28;20657;-75
2022/03/06 03:02:08;;;;;;;6.53;4.43;;;7.70;99.90;;;;;;5091141;28;20217;-74
2022/03/06 03:04:38;;;;;;;8.73;4.17;;;7.70;99.90;;;;;;5091071;28;20233;-74
2022/03/06 03:07:07;;;;;;;6.40;4.90;;;7.70;99.90;;;;;;5091593;28;20197;-74
2022/03/06 03:09:34;;;;;;;5.47;4.67;;;7.70;99.90;;;;;;5091894;28;20300;-76
2022/03/06 03:12:02;;;;;;;6.40;5.00;;;7.60;99.90;;;;;;5090630;28;20209;-75
2022/03/06 03:14:32;;;;;;;9.40;6.13;;;7.60;99.90;;;;;;5091329;28;20217;-75
2022/03/06 03:16:59;;;;;;;6.70;4.60;;;7.60;99.90;;;;;;5090667;28;20201;-76
2022/03/06 03:19:26;;;;;;;10.27;5.20;;;7.60;99.90;;;;;;5091053;28;20258;-76
2022/03/06 03:21:53;;;;;;;8.60;4.60;;;7.60;99.90;;;;;;5090742;28;20275;-76
2022/03/06 03:24:20;;;;;;;6.60;4.73;;;7.60;99.90;;;;;;5090897;28;20233;-73
2022/03/06 03:26:47;;;;;;;7.17;4.67;;;7.60;99.90;;;;;;5084896;28;20666;-73
2022/03/06 03:29:14;;;;;;;6.70;5.57;;;7.50;99.90;;;;;;5070699;28;20206;-74
2022/03/06 03:31:43;;;;;;;6.03;5.43;;;7.50;99.90;;;;;;5070009;28;20198;-76
2022/03/06 03:34:10;;;;;;;7.60;5.20;;;7.50;99.90;;;;;;5070818;28;20209;-75
2022/03/06 03:36:38;;;;;;;8.00;5.67;;;7.50;99.90;;;;;;5071253;28;20202;-76
2022/03/06 03:39:05;;;;;;;5.67;5.07;;;7.50;99.90;;;;;;5077202;28;20206;-79
2022/03/06 03:41:33;;;;;;;6.87;5.47;;;7.40;99.90;;;;;;5095000;28;20205;-80
2022/03/06 03:44:00;;;;;;;7.03;5.57;;;7.40;99.90;;;;;;5094302;28;20213;-79
2022/03/06 03:46:26;;;;;;;5.07;4.17;;;7.40;99.90;;;;;;5094899;28;20201;-75
2022/03/06 03:48:55;;;;;;;6.30;4.47;;;7.40;99.90;;;;;;5094468;28;20262;-77
2022/03/06 03:51:22;;;;;;;7.67;5.53;;;7.40;99.90;;;;;;5094748;28;20205;-77
2022/03/06 03:53:49;;;;;;;9.50;4.80;;;7.30;99.90;;;;;;5094333;28;20238;-77
2022/03/06 03:56:16;;;;;;;7.33;5.00;;;7.40;99.90;;;;;;5092118;28;20206;-78
2022/03/06 03:58:43;;;;;;;6.13;4.13;;;7.40;99.90;;;;;;5094084;28;20222;-77
2022/03/06 04:01:10;;;;;;;7.37;4.53;;;7.30;99.90;;;;;;5094181;28;20271;-77
2022/03/06 04:03:37;;;;;;;6.90;4.73;;;7.30;99.90;;;;;;5094663;28;20290;-78
2022/03/06 04:06:05;;;;;;;8.57;5.03;;;7.30;99.90;;;;;;5093934;28;20269;-77
2022/03/06 04:08:32;;;;;;;4.67;3.80;;;7.30;99.90;;;;;;5094206;28;20730;-79
2022/03/06 04:10:59;;;;;;;5.73;5.07;;;7.30;99.90;;;;;;5093106;28;20291;-77
2022/03/06 04:13:26;;;;;;;6.53;4.30;;;7.20;99.90;;;;;;5094242;28;20205;-77
2022/03/06 04:15:54;;;;;;;4.83;3.80;;;7.20;99.90;;;;;;5093645;28;20266;-77
2022/03/06 04:18:21;;;;;;;9.20;4.10;;;7.20;99.90;;;;;;5094215;28;20293;-78
2022/03/06 04:20:48;;;;;;;10.40;4.83;;;7.20;99.90;;;;;;5093365;28;20696;-79
2022/03/06 04:23:16;;;;;;;4.27;3.80;;;7.20;99.90;;;;;;5094146;28;20282;-76
2022/03/06 04:25:43;;;;;;;5.30;4.07;;;7.20;99.90;;;;;;5093342;28;20649;-76
2022/03/06 04:28:10;;;;;;;7.17;4.07;;;7.30;99.90;;;;;;5093796;28;20677;-78
2022/03/06 04:30:37;;;;;;;4.03;3.50;;;7.20;99.90;;;;;;5093958;28;20282;-77
2022/03/06 04:33:04;;;;;;;7.67;4.97;;;7.20;99.90;;;;;;5088642;28;20209;-75
2022/03/06 04:35:32;;;;;;;5.70;3.53;;;7.20;99.90;;;;;;5093495;28;20213;-75
2022/03/06 04:37:59;;;;;;;5.60;4.13;;;7.20;99.90;;;;;;5086219;28;20213;-77
2022/03/06 04:40:28;;;;;;;4.63;3.83;;;7.20;99.90;;;;;;5087595;28;20205;-77
2022/03/06 04:42:54;;;;;;;4.83;4.13;;;7.10;99.90;;;;;;5093118;28;20213;-74
2022/03/06 04:45:23;;;;;;;5.17;4.03;;;7.10;99.90;;;;;;5093108;28;20275;-77
2022/03/06 04:47:50;;;;;;;5.17;3.43;;;7.10;99.90;;;;;;5093189;28;20209;-75
2022/03/06 04:50:17;;;;;;;4.47;3.43;;;7.10;99.90;;;;;;5092423;28;20210;-75
2022/03/06 04:52:44;;;;;;;8.67;3.43;;;7.10;99.90;;;;;;5087609;28;20209;-76
2022/03/06 04:55:11;;;;;;;6.23;3.60;;;7.10;99.90;;;;;;5073191;28;20205;-76
2022/03/06 04:57:41;;;;;;;5.57;3.33;;;7.10;99.90;;;;;;5073432;28;20682;-76
2022/03/06 05:00:09;;;;;;;4.70;4.00;;;7.10;99.90;;;;;;5073246;28;20284;-75
2022/03/06 05:02:36;;;;;;;5.17;3.33;;;7.00;99.90;;;;;;5073007;28;20210;-75
2022/03/06 05:05:03;;;;;;;4.13;3.47;;;7.00;99.90;;;;;;5072963;28;20226;-75
2022/03/06 05:07:30;;;;;;;3.87;2.83;;;7.10;99.90;;;;;;5073244;28;20206;-76
2022/03/06 05:09:57;;;;;;;6.23;3.70;;;7.10;99.90;;;;;;5072837;28;20198;-75
2022/03/06 05:12:24;;;;;;;3.50;2.73;;;7.00;99.90;;;;;;5073133;28;20252;-76
2022/03/06 05:14:53;;;;;;;5.07;3.73;;;7.00;99.90;;;;;;5072367;28;20233;-76
2022/03/06 05:17:20;;;;;;;7.47;4.07;;;7.00;99.90;;;;;;5073107;28;20210;-76
2022/03/06 05:19:47;;;;;;;9.77;4.33;;;7.10;99.90;;;;;;5072744;28;20275;-76
2022/03/06 05:22:14;;;;;;;6.33;3.97;;;7.00;99.90;;;;;;5073074;28;20555;-78
2022/03/06 05:24:41;;;;;;;4.70;3.63;;;7.00;99.90;;;;;;5072295;28;20719;-76
2022/03/06 05:27:08;;;;;;;10.43;4.20;;;7.00;99.90;;;;;;5073026;28;20666;-77
2022/03/06 05:29:35;;;;;;;6.97;4.10;;;7.10;99.90;;;;;;5072550;28;20206;-74
2022/03/06 05:32:03;;;;;;;5.67;3.23;;;7.10;99.90;;;;;;5072297;28;20206;-75
2022/03/06 05:34:31;;;;;;;4.87;2.83;;;7.00;99.90;;;;;;5072730;28;20251;-75
2022/03/06 05:36:58;;;;;;;4.53;3.03;;;7.10;99.90;;;;;;5072403;28;20414;-76
2022/03/06 05:39:25;;;;;;;7.77;4.20;;;7.00;99.90;;;;;;5072641;28;20197;-75
2022/03/06 05:41:52;;;;;;;4.63;3.20;;;7.00;99.90;;;;;;5071944;28;20251;-76
2022/03/06 05:44:20;;;;;;;5.77;3.20;;;6.90;99.90;;;;;;5072228;28;20658;-75
2022/03/06 05:46:47;;;;;;;3.67;2.70;;;7.00;99.90;;;;;;5071856;28;20262;-78
2022/03/06 05:49:15;;;;;;;3.43;2.73;;;7.00;99.90;;;;;;5072350;28;20206;-77
2022/03/06 05:51:44;;;;;;;6.30;3.53;;;7.00;99.90;;;;;;5071996;28;20251;-75
2022/03/06 05:54:11;;;;;;;3.67;3.37;;;7.00;99.90;;;;;;5072016;28;20214;-76
2022/03/06 05:56:40;;;;;;;4.30;3.70;;;7.00;99.90;;;;;;5071428;28;20259;-76
2022/03/06 05:59:07;;;;;;;4.13;3.37;;;7.00;99.90;;;;;;5072303;28;20213;-75
2022/03/06 06:01:34;;;;;;;6.97;3.27;;;7.00;99.90;;;;;;5071517;28;20271;-75
2022/03/06 06:04:01;;;;;;;7.43;3.00;;;7.00;99.90;;;;;;5071540;28;20267;-80
2022/03/06 06:06:31;;;;;;;2.97;2.60;;;7.00;99.90;;;;;;5071046;28;20234;-77
2022/03/06 06:08:58;;;;;;;4.20;3.20;;;7.00;99.90;;;;;;5065665;28;20298;-78
2022/03/06 06:11:25;;;;;;;4.87;3.10;;;7.00;99.90;;;;;;5090662;28;20217;-80
2022/03/06 06:13:53;;;;;;;6.03;2.57;;;7.00;99.90;;;;;;5085616;28;20287;-80
2022/03/06 06:16:22;;;;;;;5.53;2.77;;;6.80;99.90;;;;;;5091966;28;20213;-76
2022/03/06 06:18:49;;;;;;;5.47;3.47;;;6.90;99.90;;;;;;5091315;28;20292;-79
2022/03/06 06:21:19;;;;;;;5.00;4.03;;;6.80;99.90;;;;;;5091408;28;20212;-80
2022/03/06 06:23:47;;;;;;;9.07;4.83;;;6.80;99.90;;;;;;5090888;28;20213;-80
2022/03/06 06:26:15;;;;;;;7.17;3.83;;;6.90;99.90;;;;;;5086359;28;20244;-79
2022/03/06 06:28:42;;;;;;;5.57;3.13;;;6.90;99.90;;;;;;5091252;28;20263;-76
2022/03/06 06:31:09;;;;;;;7.70;3.70;;;6.90;99.90;;;;;;5091425;28;20669;-75
2022/03/06 06:33:36;;;;;;;5.43;3.60;;;6.80;99.90;;;;;;5091798;28;20640;-78
2022/03/06 06:36:04;;;;;;;7.10;3.23;;;6.80;99.90;;;;;;5091013;28;20720;-80
2022/03/06 06:38:31;;;;;;;5.37;2.80;;;6.80;99.90;;;;;;5091623;28;20212;-80
2022/03/06 06:41:00;;;;;;;8.07;2.83;;;7.00;99.90;;;;;;5091162;28;20209;-77
2022/03/06 06:43:29;;;;;;;5.60;3.93;;;6.90;99.90;;;;;;5091754;28;20198;-82
2022/03/06 06:45:56;;;;;;;5.23;3.80;;;6.90;99.90;;;;;;5091051;28;20297;-82
2022/03/06 06:48:23;;;;;;;5.20;3.83;;;7.30;99.90;;;;;;5091500;28;20197;-81
2022/03/06 06:50:50;;;;;;;5.77;4.00;;;7.20;99.90;;;;;;5091210;28;20269;-79
2022/03/06 06:53:17;;;;;;;6.80;5.00;;;7.10;99.90;;;;;;5091139;28;20198;-77
2022/03/06 06:55:44;;;;;;;8.07;4.77;;;7.20;99.90;;;;;;5090637;28;20201;-76
2022/03/06 06:58:12;;;;;;;7.70;4.27;;;7.10;99.90;;;;;;5091014;28;20201;-77
2022/03/06 07:00:40;;;;;;;8.70;4.23;;;7.10;99.90;;;;;;5089155;28;20205;-77
2022/03/06 07:03:07;;;;;;;5.27;4.17;;;7.20;99.90;;;;;;5086513;28;20205;-78
2022/03/06 07:05:34;;;;;;;5.83;4.83;;;7.20;99.90;;;;;;5091110;28;20224;-74
2022/03/06 07:08:01;;;;;;;6.27;5.43;;;7.20;99.90;;;;;;5086497;28;20206;-77
2022/03/06 07:10:28;;;;;;;5.87;4.50;;;7.30;99.90;;;;;;5090891;28;20205;-77
2022/03/06 07:12:55;;;;;;;6.20;4.40;;;7.30;99.90;;;;;;5089971;28;20209;-75
2022/03/06 07:15:28;;;;;;;5.97;5.33;;;7.30;99.90;;;;;;5090600;28;20241;-75
2022/03/06 07:17:56;;;;;;;7.13;4.03;;;7.30;99.90;;;;;;5090194;28;20266;-77
2022/03/06 07:20:24;;;;;;;5.73;5.07;;;7.30;99.90;;;;;;5090788;28;20668;-79
2022/03/06 07:22:51;;;;;;;7.20;4.73;;;7.40;99.90;;;;;;5090196;28;20289;-78
2022/03/06 07:25:18;;;;;;;5.77;4.50;;;7.40;99.90;;;;;;5090373;28;20206;-78
2022/03/06 07:27:45;;;;;;;9.57;5.53;;;7.50;99.90;;;;;;5090103;28;20205;-78
2022/03/06 07:30:13;;;;;;;9.20;4.50;;;7.50;99.90;;;;;;5090695;28;20202;-78
2022/03/06 07:32:46;;;;;;;5.60;4.20;;;7.50;99.90;;;;;;5090844;28;20205;-77
2022/03/06 07:35:14;;;;;;;6.30;4.57;;;7.50;99.90;;;;;;5090398;28;20239;-76
2022/03/06 07:37:41;;;;;;;8.03;3.83;;;7.50;99.90;;;;;;5090421;28;20284;-80
2022/03/06 07:40:10;;;;;;;6.93;4.53;;;7.60;99.90;;;;;;5085148;28;20220;-76
2022/03/06 07:42:38;;;;;;;4.73;4.20;;;7.70;99.90;;;;;;5078406;28;20212;-79
2022/03/06 07:45:06;;;;;;;11.80;5.37;;;7.70;99.90;;;;;;5069603;28;20224;-80
2022/03/06 07:47:33;;;;;;;6.67;4.33;;;7.60;99.90;;;;;;5070989;28;20237;-80
2022/03/06 07:50:02;;;;;;;9.50;5.13;;;7.70;99.90;;;;;;5085147;28;20221;-78
2022/03/06 07:52:29;;;;;;;7.50;4.33;;;7.70;99.90;;;;;;5065909;28;20252;-78
2022/03/06 07:54:56;;;;;;;5.07;4.30;;;7.60;99.90;;;;;;5071587;28;20634;-79
2022/03/06 07:57:23;;;;;;;6.10;4.60;;;7.70;99.90;;;;;;5068598;28;20267;-80
2022/03/06 07:59:50;;;;;;;4.27;3.77;;;7.80;99.90;;;;;;5069734;28;20210;-78
2022/03/06 08:02:17;;;;;;;5.97;4.07;;;7.90;99.90;;;;;;5070107;28;20222;-79
2022/03/06 08:04:44;;;;;;;5.00;4.50;;;7.90;99.90;;;;;;5070143;28;20256;-79
2022/03/06 08:07:12;;;;;;;6.93;3.93;;;8.00;99.90;;;;;;5069296;28;20291;-78
2022/03/06 08:09:39;;;;;;;6.97;4.83;;;8.00;99.90;;;;;;5071156;28;20630;-80
2022/03/06 08:12:08;;;;;;;6.07;4.27;;;8.00;99.90;;;;;;5070217;28;20218;-79
2022/03/06 08:14:35;;;;;;;5.33;4.67;;;8.10;99.90;;;;;;5068511;28;20274;-78
2022/03/06 08:17:01;;;;;;;7.97;4.93;;;8.20;99.90;;;;;;5061399;28;20685;-78
2022/03/06 08:19:28;;;;;;;12.27;5.17;;;8.20;99.90;;;;;;5070386;28;20260;-78
2022/03/06 08:21:55;;;;;;;6.47;4.63;;;8.20;99.90;;;;;;5069701;28;20546;-78
2022/03/06 08:24:24;;;;;;;6.70;5.37;;;8.30;99.90;;;;;;5070459;28;20283;-79
2022/03/06 08:26:51;;;;;;;5.07;4.17;;;8.40;99.90;;;;;;5073637;28;20238;-79
2022/03/06 08:29:18;;;;;;;4.57;4.00;;;8.60;99.90;;;;;;5064114;28;20214;-77
2022/03/06 08:31:45;;;;;;;6.10;4.47;;;8.60;99.90;;;;;;5073923;28;20278;-77
2022/03/06 08:34:12;;;;;;;9.33;5.07;;;8.60;99.90;;;;;;5070697;28;20279;-77
2022/03/06 08:36:39;;;;;;;5.63;4.07;;;8.60;99.90;;;;;;5073456;28;20279;-75
2022/03/06 08:39:07;;;;;;;7.87;5.43;;;8.60;99.90;;;;;;5073765;28;20276;-78
2022/03/06 08:41:35;;;;;;;6.73;4.80;;;8.70;99.90;;;;;;5074207;28;20213;-79
2022/03/06 08:44:02;;;;;;;6.77;4.57;;;8.80;99.90;;;;;;5063279;28;20284;-77
2022/03/06 08:46:29;;;;;;;5.67;5.07;;;9.40;99.90;;;;;;5053282;28;20305;-77
2022/03/06 08:48:56;;;;;;;7.13;5.47;;;9.00;99.90;;;;;;5053561;28;20245;-83
2022/03/06 08:51:23;;;;;;;7.63;4.60;;;9.00;99.90;;;;;;5053341;28;20207;-81
2022/03/06 08:53:50;;;;;;;5.87;5.00;;;9.10;99.90;;;;;;5053069;28;20206;-80
2022/03/06 08:56:17;;;;;;;9.07;5.60;;;9.20;99.90;;;;;;5053542;28;20623;-80
2022/03/06 08:58:45;;;;;;;7.17;4.80;;;9.20;99.90;;;;;;5053142;28;20203;-80
2022/03/06 09:01:12;;;;;;;10.97;5.83;;;9.30;99.90;;;;;;5053319;28;20268;-78
2022/03/06 09:03:39;;;;;;;9.17;5.93;;;9.50;99.90;;;;;;5053384;28;20262;-80
2022/03/06 09:06:06;;;;;;;8.33;6.13;;;9.70;99.90;;;;;;5053280;28;20227;-78
2022/03/06 09:08:33;;;;;;;6.27;5.67;;;9.60;99.90;;;;;;5053708;28;20260;-78
2022/03/06 09:11:00;;;;;;;6.53;5.17;;;9.70;99.90;;;;;;5053086;28;20256;-79
2022/03/06 09:13:27;;;;;;;9.57;5.93;;;9.70;99.90;;;;;;5056290;28;20198;-76
2022/03/06 09:15:55;;;;;;;9.03;5.33;;;9.80;99.90;;;;;;5068750;28;20260;-77
2022/03/06 09:18:22;;;;;;;7.23;5.20;;;9.80;99.90;;;;;;5072362;28;20741;-78
2022/03/06 09:20:50;;;;;;;8.70;6.37;;;10.10;99.90;;;;;;5069866;28;20244;-75
2022/03/06 09:23:17;;;;;;;6.97;4.33;;;10.00;99.90;;;;;;5071911;28;20206;-78
2022/03/06 09:25:44;;;;;;;8.57;5.43;;;10.10;99.90;;;;;;5072691;28;20202;-76
2022/03/06 09:28:12;;;;;;;7.47;4.80;;;10.20;99.90;;;;;;5072791;28;20256;-77
2022/03/06 09:30:39;;;;;;;8.63;5.53;;;10.20;99.90;;;;;;5072829;28;20206;-75
2022/03/06 09:33:08;;;;;;;7.73;4.27;;;10.20;99.90;;;;;;5072054;28;20206;-79
2022/03/06 09:35:35;;;;;;;13.07;5.50;;;9.80;99.90;;;;;;5068691;28;20198;-78
2022/03/06 09:38:02;;;;;;;6.33;5.30;;;9.80;99.90;;;;;;5071569;28;20744;-79
2022/03/06 09:40:29;;;;;;;6.80;5.20;;;9.70;99.90;;;;;;5072596;28;20206;-79
2022/03/06 09:42:57;;;;;;;5.50;4.77;;;9.70;99.90;;;;;;5070780;28;20686;-77
2022/03/06 09:45:24;;;;;;;8.30;4.00;;;9.40;99.90;;;;;;5070903;28;20202;-75
2022/03/06 09:47:52;;;;;;;12.37;5.20;;;9.60;99.90;;;;;;5070937;28;20633;-78
2022/03/06 09:50:21;;;;;;;8.40;4.70;;;9.50;99.90;;;;;;5072334;28;20650;-79
2022/03/06 09:52:48;;;;;;;7.10;5.33;;;9.50;99.90;;;;;;5072080;28;20256;-79
2022/03/06 09:55:15;;;;;;;5.70;4.77;;;9.40;99.90;;;;;;5072132;28;20260;-77
2022/03/06 09:57:42;;;;;;;5.57;4.97;;;9.50;99.90;;;;;;5070969;28;20665;-78
2022/03/06 10:00:10;;;;;;;6.83;4.50;;;9.30;99.90;;;;;;5072137;28;20361;-76
2022/03/06 10:02:54;;;;;;;6.37;4.57;;;9.30;99.90;;;;;;5072033;28;20301;-78
2022/03/06 10:05:34;;;;;;;4.40;3.83;;;9.30;99.90;;;;;;5071959;28;20692;-80
2022/03/06 10:08:22;;;;;;;6.47;4.50;;;9.30;99.90;;;;;;5071510;28;20237;-79
2022/03/06 10:10:50;;;;;;;4.63;4.20;;;9.30;99.90;;;;;;5071439;28;20206;-79
2022/03/06 10:13:25;;;;;;;5.53;4.17;;;9.40;99.90;;;;;;5071884;28;20613;-78
2022/03/06 10:16:12;;;;;;;8.47;4.37;;;9.40;99.90;;;;;;5071467;28;20263;-78
2022/03/06 10:18:40;;;;;;;7.53;4.10;;;9.50;99.90;;;;;;5071774;28;20633;-76
2022/03/06 10:21:18;;;;;;;5.57;4.63;;;9.70;99.90;;;;;;5071548;28;20255;-76
2022/03/06 10:23:46;;;;;;;5.70;4.07;;;9.80;99.90;;;;;;5068202;28;20209;-76
2022/03/06 10:26:15;;;;;;;4.03;3.43;;;9.70;99.90;;;;;;5071594;28;20257;-74
2022/03/06 10:28:47;;;;;;;4.40;3.87;;;9.70;99.90;;;;;;5071097;28;20731;-75
2022/03/06 10:31:16;;;;;;;6.17;3.30;;;9.70;99.90;;;;;;5071588;28;20205;-76
2022/03/06 10:34:02;;;;;;;4.53;2.70;;;9.80;99.90;;;;;;5070803;28;20205;-78
2022/03/06 10:36:40;;;;;;;3.67;3.23;;;10.00;99.90;;;;;;5071540;28;20256;-76
2022/03/06 10:39:14;;;;;;;5.13;2.60;;;10.20;99.90;;;;;;5071429;28;20205;-75
2022/03/06 10:41:43;;;;;;;4.47;2.87;;;10.30;99.90;;;;;;5071049;28;20210;-76
2022/03/06 10:44:12;;;;;;;5.20;2.60;;;10.40;99.90;;;;;;5071339;28;20209;-76
2022/03/06 10:46:40;;;;;;;3.03;2.47;;;10.20;99.90;;;;;;5071220;28;20230;-79
2022/03/06 10:49:12;;;;;;;4.27;3.27;;;10.30;99.90;;;;;;5071546;28;20228;-80
2022/03/06 10:51:43;;;;;;;5.87;3.20;;;10.10;99.90;;;;;;5071101;28;20670;-80
2022/03/06 10:54:13;;;;;;;10.13;3.97;;;10.50;99.90;;;;;;5071261;28;20210;-79
2022/03/06 10:56:40;;;;;;;3.10;2.30;;;10.30;99.90;;;;;;5070918;28;20216;-75
2022/03/06 10:59:07;;;;;;;3.73;3.17;;;10.30;99.90;;;;;;5071345;28;20665;-77
2022/03/06 11:01:36;;;;;;;8.73;4.17;;;10.30;99.90;;;;;;5070979;28;20719;-78
2022/03/06 11:04:06;;;;;;;6.10;4.10;;;10.30;99.90;;;;;;5070611;28;20310;-79
2022/03/06 11:06:39;;;;;;;4.40;4.00;;;10.50;99.90;;;;;;5071226;28;20241;-79
2022/03/06 11:09:12;;;;;;;6.03;4.50;;;10.60;99.90;;;;;;5071330;28;20209;-81
2022/03/06 11:11:41;;;;;;;5.80;4.20;;;10.70;99.90;;;;;;5070758;28;20208;-80
2022/03/06 11:14:08;;;;;;;7.90;4.60;;;10.80;99.90;;;;;;5070418;28;20202;-77
2022/03/06 11:16:37;;;;;;;5.23;4.67;;;10.90;99.90;;;;;;5069997;28;20202;-80
2022/03/06 11:19:05;;;;;;;5.17;3.93;;;10.90;99.90;;;;;;5070851;28;20202;-80
2022/03/06 11:21:34;;;;;;;5.23;4.73;;;11.20;99.90;;;;;;5070911;28;20210;-78
2022/03/06 11:24:07;;;;;;;4.37;3.60;;;11.10;99.90;;;;;;5070693;28;20206;-80
2022/03/06 11:26:56;;;;;;;3.60;2.33;;;11.20;99.90;;;;;;5070898;28;20202;-80
2022/03/06 11:30:03;;;;;;;6.40;2.57;;;11.00;99.90;;;;;;5069792;28;20732;-81
2022/03/06 11:32:31;;;;;;;2.83;2.20;;;10.90;99.90;;;;;;5070729;28;20210;-80
2022/03/06 11:35:07;;;;;;;5.33;3.47;;;11.10;99.90;;;;;;5070356;28;20258;-82
2022/03/06 11:37:50;;;;;;;3.10;2.80;;;11.40;99.90;;;;;;5071273;28;20202;-82
2022/03/06 11:40:48;;;;;;;4.73;3.03;;;11.50;99.90;;;;;;5070701;28;20209;-79
2022/03/06 11:43:44;;;;;;;5.63;2.33;;;11.30;99.90;;;;;;5074026;28;20210;-81
2022/03/06 11:46:16;;;;;;;3.00;2.73;;;11.20;99.90;;;;;;5069492;28;20603;-82
2022/03/06 11:49:13;;;;;;;5.22;3.65;;;10.90;99.90;;;;;;5069469;28;20229;-79
2022/03/06 11:51:45;;;;;;;4.47;3.47;;;10.90;99.90;;;;;;5070369;28;20218;-77
2022/03/06 11:54:18;;;;;;;4.67;3.40;;;10.90;99.90;;;;;;5070539;28;20653;-80
2022/03/06 11:56:49;;;;;;;5.13;3.53;;;11.00;99.90;;;;;;5070329;28;20206;-82
2022/03/06 11:59:46;;;;;;;4.83;3.60;;;11.20;99.90;;;;;;5070669;28;20194;-83
2022/03/06 12:02:21;;;;;;;7.23;3.80;;;11.40;99.90;;;;;;5073369;28;20260;-80
2022/03/06 12:04:56;;;;;;;5.03;4.10;;;11.60;99.90;;;;;;5074136;28;20201;-80
2022/03/06 12:07:26;;;;;;;5.67;4.17;;;11.40;99.90;;;;;;5074662;28;20282;-79
2022/03/06 12:09:54;;;;;;;9.10;6.27;;;11.10;99.90;;;;;;5074354;28;20202;-80
2022/03/06 12:12:22;;;;;;;5.33;4.73;;;10.90;99.90;;;;;;5074396;28;20207;-83
2022/03/06 12:14:53;;;;;;;7.23;4.63;;;10.70;99.90;;;;;;5073765;28;20202;-79
2022/03/06 12:17:38;;;;;;;7.80;4.33;;;10.80;99.90;;;;;;5074209;28;20285;-79
2022/03/06 12:20:38;;;;;;;6.10;4.67;;;11.00;99.90;;;;;;5054530;28;20271;-79
2022/03/06 12:23:09;;;;;;;6.40;4.27;;;11.00;99.90;;;;;;5053102;28;20203;-79
2022/03/06 12:25:38;;;;;;;9.67;5.10;;;11.00;99.90;;;;;;5054470;28;20206;-80
2022/03/06 12:28:31;;;;;;;5.77;4.97;;;11.10;99.90;;;;;;5054085;28;20262;-79
2022/03/06 12:31:20;;;;;;;6.53;4.80;;;11.20;99.90;;;;;;5054030;28;20522;-80
2022/03/06 12:33:47;;;;;;;6.57;4.67;;;11.60;99.90;;;;;;5053447;28;20290;-80
2022/03/06 12:36:23;;;;;;;5.73;4.63;;;11.80;99.90;;;;;;5054011;28;20206;-78
2022/03/06 12:38:59;;;;;;;10.37;4.80;;;11.90;99.90;;;;;;5053336;28;20743;-79
2022/03/06 12:41:26;;;;;;;6.53;5.35;;;12.10;99.90;;;;;;5053844;28;20264;-80
2022/03/06 12:44:00;;;;;;;5.25;4.47;;;12.20;99.90;;;;;;5053360;28;20648;-80
2022/03/06 12:46:29;;;;;;;6.20;4.70;;;12.30;99.90;;;;;;5053737;28;20263;-82
2022/03/06 12:48:56;;;;;;;9.23;5.25;;;12.50;99.90;;;;;;5053243;28;20239;-80
2022/03/06 12:51:28;;;;;;;7.00;4.88;;;12.60;99.90;;;;;;5053461;28;20753;-81
2022/03/06 12:53:55;;;;;;;5.72;4.75;;;12.70;99.90;;;;;;5053247;28;20261;-79
2022/03/06 12:56:37;;;;;;;6.78;4.85;;;12.60;99.90;;;;;;5053605;28;20282;-78
2022/03/06 12:59:10;;;;;;;8.38;5.47;;;12.50;99.90;;;;;;5061463;28;20649;-74
2022/03/06 13:01:40;;;;;;;7.63;4.78;;;12.20;99.90;;;;;;5074778;28;20267;-77
2022/03/06 13:04:09;;;;;;;7.97;5.88;;;12.00;99.90;;;;;;5073555;28;20206;-80